Terminal Aerodrome Forecast
Issued by NWS Jackson, KY

Home | Current Version | Previous Version | Text Only | Print | Product List | Glossary On
Versions: 1 2 3 4 5 6 7 8 9 10 11 12 13 14 15 16
000
FTUS43 KJKL 241740
TAFLOZ
TAF
KLOZ 241740Z 2418/2518 VRB05KT P6SM VCSH BKN050 BKN100
     FM242300 VRB03KT P6SM SCT050 BKN100
     FM251000 19006KT P6SM VCSH SCT030 BKN050
     FM251300 21007KT 4SM -SHRA BR VCTS BKN040CB=

USA.gov is the U.S. government's official web portal to all federal, state and local government web resources and services.